»·PEaware :: N101JP KCMA-KNZY

N101JP :: KCMA-KNZY

FLIGHT INFORMATION

Flight Status: Arrived
Operator: Privately registered:
United States
More flights under this callsign
Pilot: James T. (870)
Aircraft: BEECH AIRCRAFT SUPER KING AIR COMMUTER
(BE20)
More flights by this aircraft type
Origin: KCMA Camarillo
United States
Destination: KNZY North Island NAS
United States
More flights between these airports :: More routes between these airports
Route: VTU V208 SXC V208 LAX118 CARDI MZB320 MZB
File this flight plan on PilotEdge
Remarks:
Altitude:
(Current/Filed)
90ft
Speed:
(Current/Filed)
220kts
Departed: 12-Nov-17 03:55 PM
Arrived: 12-Nov-17 04:54 PM
Distance/Time
Traveled:
131nm/0:58
Distance/Time
To Go:
Arrived

Flight Plot

Page will automatically refresh every two minutes.

Flight plan parsing failed; only flown route is shown


Map Options




Map Legend


Flown Route
Filed Route
Departure Airport
Arrival Airport
Navaid (VOR, NDB)
Fix

Horizontal Profiles

Position Reports

Time Latitude Longitude Heading Altitude Ground
Speed
12-Nov-17 15:39 34.210083 -119.077148 90 81ft 0kts
12-Nov-17 15:40 34.210083 -119.077148 90 81ft 0kts
12-Nov-17 15:41 34.210083 -119.077148 90 81ft 0kts
12-Nov-17 15:42 34.210083 -119.077148 90 81ft 0kts
12-Nov-17 15:43 34.210083 -119.077148 90 81ft 0kts
12-Nov-17 15:44 34.210083 -119.077148 90 81ft 0kts
12-Nov-17 15:45 34.210083 -119.077148 90 81ft 0kts
12-Nov-17 15:46 34.210083 -119.077148 90 81ft 0kts
12-Nov-17 15:47 34.210083 -119.077148 90 81ft 0kts
12-Nov-17 15:48 34.210083 -119.077148 90 81ft 0kts
12-Nov-17 15:49 34.210083 -119.077148 90 81ft 0kts
12-Nov-17 15:50 34.210083 -119.077148 90 81ft 0kts
12-Nov-17 15:51 34.210083 -119.077148 90 81ft 0kts
12-Nov-17 15:52 34.210083 -119.077148 90 81ft 0kts
12-Nov-17 15:53 34.210391 -119.076640 358 81ft 3kts
12-Nov-17 15:54 34.211243 -119.078472 270 81ft 6kts
12-Nov-17 15:55 34.211284 -119.083462 270 81ft 18kts
12-Nov-17 15:56 34.212825 -119.084607 359 81ft 0kts
12-Nov-17 15:57 34.212825 -119.084607 359 81ft 0kts
12-Nov-17 15:58 34.212825 -119.084607 359 81ft 0kts
12-Nov-17 15:59 34.213690 -119.085185 270 81ft 0kts
12-Nov-17 16:00 34.215779 -119.124803 284 1012ft 167kts
12-Nov-17 16:01 34.230076 -119.180188 287 3009ft 175kts
12-Nov-17 16:02 34.202703 -119.207170 154 4859ft 187kts
12-Nov-17 16:03 34.157094 -119.177078 151 6790ft 187kts
12-Nov-17 16:04 34.111765 -119.146781 151 8003ft 200kts
12-Nov-17 16:05 34.060786 -119.112728 151 8008ft 227kts
12-Nov-17 16:06 34.006270 -119.076339 151 7998ft 233kts
12-Nov-17 16:07 33.951543 -119.044210 169 8287ft 219kts
12-Nov-17 16:08 33.892969 -119.033326 172 9000ft 229kts
12-Nov-17 16:09 33.830559 -119.022193 172 9003ft 238kts
12-Nov-17 16:10 33.776376 -118.992635 131 9003ft 226kts
12-Nov-17 16:11 33.738019 -118.938452 129 8997ft 220kts
12-Nov-17 16:12 33.700749 -118.884908 129 9001ft 218kts
12-Nov-17 16:13 33.662955 -118.830059 129 9007ft 221kts
12-Nov-17 16:14 33.636052 -118.791471 129 9001ft 226kts
12-Nov-17 16:15 33.595724 -118.733661 129 8999ft 230kts
12-Nov-17 16:16 33.555114 -118.675667 129 8999ft 231kts
12-Nov-17 16:17 33.514491 -118.617499 130 9000ft 231kts
12-Nov-17 16:18 33.473671 -118.559320 129 9000ft 231kts
12-Nov-17 16:19 33.433218 -118.501726 129 9000ft 231kts
12-Nov-17 16:20 33.392523 -118.443855 129 9000ft 231kts
12-Nov-17 16:21 33.370095 -118.376587 98 9000ft 230kts
12-Nov-17 16:22 33.360369 -118.303442 97 8999ft 230kts
12-Nov-17 16:23 33.350755 -118.230365 98 9000ft 230kts
12-Nov-17 16:24 33.341272 -118.157342 98 8999ft 231kts
12-Nov-17 16:25 33.331379 -118.083821 98 9000ft 232kts
12-Nov-17 16:26 33.321460 -118.009924 98 9000ft 232kts
12-Nov-17 16:27 33.311510 -117.935761 98 9000ft 232kts
12-Nov-17 16:28 33.301597 -117.861351 98 8998ft 232kts
12-Nov-17 16:29 33.291679 -117.786383 98 8999ft 232kts
12-Nov-17 16:30 33.281021 -117.711160 99 8998ft 229kts
12-Nov-17 16:31 33.270244 -117.640106 99 8999ft 221kts
12-Nov-17 16:32 33.256064 -117.572700 128 9003ft 219kts
12-Nov-17 16:33 33.216935 -117.522027 133 9000ft 219kts
12-Nov-17 16:34 33.177597 -117.472586 133 8999ft 219kts
12-Nov-17 16:35 33.137615 -117.423142 141 8992ft 219kts
12-Nov-17 16:36 33.085024 -117.392737 155 9001ft 230kts
12-Nov-17 16:37 33.026959 -117.360512 155 9000ft 234kts
12-Nov-17 16:38 32.968439 -117.328100 155 8999ft 234kts
12-Nov-17 16:39 32.909703 -117.295535 155 8584ft 233kts
12-Nov-17 16:40 32.853739 -117.264662 155 7725ft 213kts
12-Nov-17 16:41 32.800324 -117.235203 155 7002ft 217kts
12-Nov-17 16:42 32.745240 -117.248609 208 5559ft 216kts
12-Nov-17 16:43 32.692827 -117.281590 208 4140ft 211kts
12-Nov-17 16:44 32.642133 -117.313447 208 3057ft 205kts
12-Nov-17 16:45 32.593767 -117.343921 208 2998ft 191kts
12-Nov-17 16:46 32.547261 -117.373102 208 3006ft 199kts
12-Nov-17 16:47 32.496733 -117.412574 219 3003ft 229kts
12-Nov-17 16:48 32.449796 -117.457501 219 2994ft 194kts
12-Nov-17 16:49 32.459581 -117.501765 356 2996ft 176kts
12-Nov-17 16:50 32.491580 -117.458836 62 2998ft 189kts
12-Nov-17 16:51 32.515128 -117.402833 62 2999ft 192kts
12-Nov-17 16:52 32.523765 -117.341185 85 2997ft 193kts
12-Nov-17 16:53 32.527426 -117.287107 78 3290ft 129kts
12-Nov-17 16:54 32.549602 -117.257832 19 2714ft 149kts
12-Nov-17 16:55 32.588829 -117.241447 18 1513ft 146kts
12-Nov-17 16:56 32.623776 -117.231469 358 1619ft 131kts
12-Nov-17 16:57 32.660103 -117.224272 8 1038ft 126kts
12-Nov-17 16:58 32.694045 -117.216907 15 30ft 90kts
12-Nov-17 16:59 32.699866 -117.214641 73 30ft 11kts
12-Nov-17 17:00 32.700359 -117.213325 11 30ft 0kts

Navigation Log

Ident Type
Flight plan parsing failed, navigation log unavailable